sensor_id;sensor_type;location;lat;lon;timestamp;P1;durP1;ratioP1;P2;durP2;ratioP2
65045;SDS011;54657;52.022;5.534;2023-06-14T00:01:17;4.43;;;3.17;;
65045;SDS011;54657;52.022;5.534;2023-06-14T00:03:45;3.67;;;2.70;;
65045;SDS011;54657;52.022;5.534;2023-06-14T00:06:12;5.15;;;2.63;;
65045;SDS011;54657;52.022;5.534;2023-06-14T00:08:38;6.38;;;2.95;;
65045;SDS011;54657;52.022;5.534;2023-06-14T00:11:04;8.27;;;2.65;;
65045;SDS011;54657;52.022;5.534;2023-06-14T00:13:30;4.47;;;2.60;;
65045;SDS011;54657;52.022;5.534;2023-06-14T00:15:56;8.93;;;2.88;;
65045;SDS011;54657;52.022;5.534;2023-06-14T00:18:22;7.47;;;2.83;;
65045;SDS011;54657;52.022;5.534;2023-06-14T00:20:49;5.18;;;3.00;;
65045;SDS011;54657;52.022;5.534;2023-06-14T00:23:15;6.93;;;3.00;;
65045;SDS011;54657;52.022;5.534;2023-06-14T00:25:41;4.55;;;2.47;;
65045;SDS011;54657;52.022;5.534;2023-06-14T00:28:06;5.50;;;3.00;;
65045;SDS011;54657;52.022;5.534;2023-06-14T00:30:32;3.55;;;2.40;;
65045;SDS011;54657;52.022;5.534;2023-06-14T00:32:58;3.50;;;2.67;;
65045;SDS011;54657;52.022;5.534;2023-06-14T00:35:23;5.90;;;2.97;;
65045;SDS011;54657;52.022;5.534;2023-06-14T00:37:50;3.78;;;2.90;;
65045;SDS011;54657;52.022;5.534;2023-06-14T00:40:15;6.57;;;2.80;;
65045;SDS011;54657;52.022;5.534;2023-06-14T00:42:41;6.32;;;2.55;;
65045;SDS011;54657;52.022;5.534;2023-06-14T00:45:07;5.07;;;2.70;;
65045;SDS011;54657;52.022;5.534;2023-06-14T00:47:33;4.68;;;2.80;;
65045;SDS011;54657;52.022;5.534;2023-06-14T00:50:00;4.72;;;3.03;;
65045;SDS011;54657;52.022;5.534;2023-06-14T00:52:26;7.00;;;2.92;;
65045;SDS011;54657;52.022;5.534;2023-06-14T00:54:52;7.03;;;2.80;;
65045;SDS011;54657;52.022;5.534;2023-06-14T00:57:18;3.55;;;2.45;;
65045;SDS011;54657;52.022;5.534;2023-06-14T00:59:46;5.88;;;2.88;;
65045;SDS011;54657;52.022;5.534;2023-06-14T01:02:13;4.13;;;3.05;;
65045;SDS011;54657;52.022;5.534;2023-06-14T01:04:43;4.43;;;2.45;;
65045;SDS011;54657;52.022;5.534;2023-06-14T01:07:29;4.07;;;2.60;;
65045;SDS011;54657;52.022;5.534;2023-06-14T01:13:08;6.57;;;2.72;;
65045;SDS011;54657;52.022;5.534;2023-06-14T01:15:40;4.57;;;2.75;;
65045;SDS011;54657;52.022;5.534;2023-06-14T01:18:08;5.40;;;2.53;;
65045;SDS011;54657;52.022;5.534;2023-06-14T01:20:42;4.97;;;2.58;;
65045;SDS011;54657;52.022;5.534;2023-06-14T01:23:10;4.07;;;2.80;;
65045;SDS011;54657;52.022;5.534;2023-06-14T01:25:37;4.13;;;2.40;;
65045;SDS011;54657;52.022;5.534;2023-06-14T01:28:04;4.57;;;2.40;;
65045;SDS011;54657;52.022;5.534;2023-06-14T01:30:38;7.47;;;3.20;;
65045;SDS011;54657;52.022;5.534;2023-06-14T01:33:09;4.53;;;2.40;;
65045;SDS011;54657;52.022;5.534;2023-06-14T01:35:37;5.80;;;2.83;;
65045;SDS011;54657;52.022;5.534;2023-06-14T01:38:03;3.80;;;2.90;;
65045;SDS011;54657;52.022;5.534;2023-06-14T01:40:30;3.90;;;2.55;;
65045;SDS011;54657;52.022;5.534;2023-06-14T01:42:57;4.82;;;2.97;;
65045;SDS011;54657;52.022;5.534;2023-06-14T01:45:24;3.00;;;2.60;;
65045;SDS011;54657;52.022;5.534;2023-06-14T01:47:50;3.55;;;2.80;;
65045;SDS011;54657;52.022;5.534;2023-06-14T01:50:16;3.33;;;2.58;;
65045;SDS011;54657;52.022;5.534;2023-06-14T01:52:45;5.38;;;2.90;;
65045;SDS011;54657;52.022;5.534;2023-06-14T01:55:10;6.13;;;2.42;;
65045;SDS011;54657;52.022;5.534;2023-06-14T01:57:36;4.57;;;2.50;;
65045;SDS011;54657;52.022;5.534;2023-06-14T02:00:03;5.07;;;2.63;;
65045;SDS011;54657;52.022;5.534;2023-06-14T02:02:33;3.30;;;2.33;;
65045;SDS011;54657;52.022;5.534;2023-06-14T02:04:58;4.55;;;2.65;;
65045;SDS011;54657;52.022;5.534;2023-06-14T02:07:24;8.88;;;2.90;;
65045;SDS011;54657;52.022;5.534;2023-06-14T02:09:49;6.43;;;2.58;;
65045;SDS011;54657;52.022;5.534;2023-06-14T02:12:15;5.72;;;3.30;;
65045;SDS011;54657;52.022;5.534;2023-06-14T02:14:40;6.03;;;2.60;;
65045;SDS011;54657;52.022;5.534;2023-06-14T02:17:06;4.13;;;2.70;;
65045;SDS011;54657;52.022;5.534;2023-06-14T02:19:32;7.78;;;2.85;;
65045;SDS011;54657;52.022;5.534;2023-06-14T02:21:58;3.25;;;2.13;;
65045;SDS011;54657;52.022;5.534;2023-06-14T02:24:24;4.78;;;2.50;;
65045;SDS011;54657;52.022;5.534;2023-06-14T02:26:49;3.45;;;2.38;;
65045;SDS011;54657;52.022;5.534;2023-06-14T02:29:15;5.55;;;2.80;;
65045;SDS011;54657;52.022;5.534;2023-06-14T02:31:41;4.65;;;2.38;;
65045;SDS011;54657;52.022;5.534;2023-06-14T02:34:06;6.22;;;2.45;;
65045;SDS011;54657;52.022;5.534;2023-06-14T02:36:33;5.20;;;2.65;;
65045;SDS011;54657;52.022;5.534;2023-06-14T02:39:00;4.35;;;2.60;;
65045;SDS011;54657;52.022;5.534;2023-06-14T02:41:26;4.32;;;2.58;;
65045;SDS011;54657;52.022;5.534;2023-06-14T02:43:51;5.82;;;2.70;;
65045;SDS011;54657;52.022;5.534;2023-06-14T02:46:21;7.97;;;2.63;;
65045;SDS011;54657;52.022;5.534;2023-06-14T02:48:46;6.40;;;2.53;;
65045;SDS011;54657;52.022;5.534;2023-06-14T02:51:12;6.93;;;2.80;;
65045;SDS011;54657;52.022;5.534;2023-06-14T02:53:38;8.27;;;2.78;;
65045;SDS011;54657;52.022;5.534;2023-06-14T02:56:03;4.88;;;2.65;;
65045;SDS011;54657;52.022;5.534;2023-06-14T02:58:29;4.72;;;2.40;;
65045;SDS011;54657;52.022;5.534;2023-06-14T03:00:55;3.50;;;2.45;;
65045;SDS011;54657;52.022;5.534;2023-06-14T03:03:21;4.50;;;2.67;;
65045;SDS011;54657;52.022;5.534;2023-06-14T03:05:49;8.63;;;2.45;;
65045;SDS011;54657;52.022;5.534;2023-06-14T03:08:16;6.65;;;2.67;;
65045;SDS011;54657;52.022;5.534;2023-06-14T03:10:45;4.07;;;2.53;;
65045;SDS011;54657;52.022;5.534;2023-06-14T03:13:11;3.38;;;2.42;;
65045;SDS011;54657;52.022;5.534;2023-06-14T03:15:38;5.20;;;2.53;;
65045;SDS011;54657;52.022;5.534;2023-06-14T03:18:04;6.03;;;2.50;;
65045;SDS011;54657;52.022;5.534;2023-06-14T03:20:29;5.78;;;2.88;;
65045;SDS011;54657;52.022;5.534;2023-06-14T03:22:58;7.25;;;2.50;;
65045;SDS011;54657;52.022;5.534;2023-06-14T03:25:27;4.95;;;2.30;;
65045;SDS011;54657;52.022;5.534;2023-06-14T03:27:56;6.40;;;2.60;;
65045;SDS011;54657;52.022;5.534;2023-06-14T03:30:22;3.70;;;2.88;;
65045;SDS011;54657;52.022;5.534;2023-06-14T03:32:48;5.15;;;3.10;;
65045;SDS011;54657;52.022;5.534;2023-06-14T03:35:13;4.13;;;2.35;;
65045;SDS011;54657;52.022;5.534;2023-06-14T03:37:45;5.95;;;2.78;;
65045;SDS011;54657;52.022;5.534;2023-06-14T03:40:12;3.15;;;2.33;;
65045;SDS011;54657;52.022;5.534;2023-06-14T03:42:38;3.67;;;2.42;;
65045;SDS011;54657;52.022;5.534;2023-06-14T03:45:05;4.78;;;2.80;;
65045;SDS011;54657;52.022;5.534;2023-06-14T03:47:31;4.43;;;2.50;;
65045;SDS011;54657;52.022;5.534;2023-06-14T03:49:57;3.92;;;2.40;;
65045;SDS011;54657;52.022;5.534;2023-06-14T03:52:22;7.10;;;2.80;;
65045;SDS011;54657;52.022;5.534;2023-06-14T03:54:48;8.95;;;2.70;;
65045;SDS011;54657;52.022;5.534;2023-06-14T03:57:14;5.93;;;2.45;;
65045;SDS011;54657;52.022;5.534;2023-06-14T03:59:40;4.95;;;2.55;;
65045;SDS011;54657;52.022;5.534;2023-06-14T04:02:06;4.40;;;2.53;;
65045;SDS011;54657;52.022;5.534;2023-06-14T04:04:34;4.22;;;2.67;;
65045;SDS011;54657;52.022;5.534;2023-06-14T04:07:00;5.85;;;2.50;;
65045;SDS011;54657;52.022;5.534;2023-06-14T04:09:28;5.50;;;2.78;;
65045;SDS011;54657;52.022;5.534;2023-06-14T04:11:55;6.25;;;2.72;;
65045;SDS011;54657;52.022;5.534;2023-06-14T04:14:20;2.67;;;2.30;;
65045;SDS011;54657;52.022;5.534;2023-06-14T04:16:47;6.00;;;2.90;;
65045;SDS011;54657;52.022;5.534;2023-06-14T04:19:13;5.53;;;2.75;;
65045;SDS011;54657;52.022;5.534;2023-06-14T04:21:41;6.28;;;2.78;;
65045;SDS011;54657;52.022;5.534;2023-06-14T04:24:07;9.45;;;2.97;;
65045;SDS011;54657;52.022;5.534;2023-06-14T04:26:48;6.75;;;2.30;;
65045;SDS011;54657;52.022;5.534;2023-06-14T04:29:14;4.53;;;2.55;;
65045;SDS011;54657;52.022;5.534;2023-06-14T04:31:41;4.35;;;2.58;;
65045;SDS011;54657;52.022;5.534;2023-06-14T04:34:07;4.03;;;2.30;;
65045;SDS011;54657;52.022;5.534;2023-06-14T04:36:33;4.13;;;2.67;;
65045;SDS011;54657;52.022;5.534;2023-06-14T04:39:02;4.22;;;2.78;;
65045;SDS011;54657;52.022;5.534;2023-06-14T04:41:31;5.63;;;2.75;;
65045;SDS011;54657;52.022;5.534;2023-06-14T04:44:00;3.88;;;2.55;;
65045;SDS011;54657;52.022;5.534;2023-06-14T04:46:28;5.15;;;2.17;;
65045;SDS011;54657;52.022;5.534;2023-06-14T04:48:55;5.15;;;2.42;;
65045;SDS011;54657;52.022;5.534;2023-06-14T04:51:21;6.35;;;2.60;;
65045;SDS011;54657;52.022;5.534;2023-06-14T04:53:54;6.82;;;2.75;;
65045;SDS011;54657;52.022;5.534;2023-06-14T04:56:23;5.95;;;2.75;;
65045;SDS011;54657;52.022;5.534;2023-06-14T04:58:50;7.85;;;2.83;;
65045;SDS011;54657;52.022;5.534;2023-06-14T05:01:15;8.65;;;2.78;;
65045;SDS011;54657;52.022;5.534;2023-06-14T05:03:41;2.85;;;2.60;;
65045;SDS011;54657;52.022;5.534;2023-06-14T05:06:09;3.92;;;2.25;;
65045;SDS011;54657;52.022;5.534;2023-06-14T05:08:36;5.65;;;2.50;;
65045;SDS011;54657;52.022;5.534;2023-06-14T05:11:02;5.28;;;2.38;;
65045;SDS011;54657;52.022;5.534;2023-06-14T05:13:27;4.10;;;2.70;;
65045;SDS011;54657;52.022;5.534;2023-06-14T05:15:53;5.85;;;2.70;;
65045;SDS011;54657;52.022;5.534;2023-06-14T05:18:18;8.98;;;3.28;;
65045;SDS011;54657;52.022;5.534;2023-06-14T05:20:44;6.25;;;3.03;;
65045;SDS011;54657;52.022;5.534;2023-06-14T05:23:11;8.15;;;2.95;;
65045;SDS011;54657;52.022;5.534;2023-06-14T05:25:41;8.13;;;2.78;;
65045;SDS011;54657;52.022;5.534;2023-06-14T05:28:10;6.13;;;2.83;;
65045;SDS011;54657;52.022;5.534;2023-06-14T05:30:37;5.47;;;2.50;;
65045;SDS011;54657;52.022;5.534;2023-06-14T05:33:03;4.18;;;2.47;;
65045;SDS011;54657;52.022;5.534;2023-06-14T05:35:29;4.78;;;2.33;;
65045;SDS011;54657;52.022;5.534;2023-06-14T05:37:54;4.00;;;2.60;;
65045;SDS011;54657;52.022;5.534;2023-06-14T05:40:20;2.95;;;2.38;;
65045;SDS011;54657;52.022;5.534;2023-06-14T05:42:46;4.38;;;2.28;;
65045;SDS011;54657;52.022;5.534;2023-06-14T05:45:11;5.55;;;2.67;;
65045;SDS011;54657;52.022;5.534;2023-06-14T05:47:37;6.95;;;2.55;;
65045;SDS011;54657;52.022;5.534;2023-06-14T05:50:03;4.70;;;2.60;;
65045;SDS011;54657;52.022;5.534;2023-06-14T05:52:28;7.22;;;2.40;;
65045;SDS011;54657;52.022;5.534;2023-06-14T05:54:54;2.78;;;2.08;;
65045;SDS011;54657;52.022;5.534;2023-06-14T05:57:20;5.65;;;2.78;;
65045;SDS011;54657;52.022;5.534;2023-06-14T05:59:45;5.07;;;2.58;;
65045;SDS011;54657;52.022;5.534;2023-06-14T06:02:11;4.63;;;2.70;;
65045;SDS011;54657;52.022;5.534;2023-06-14T06:04:36;3.50;;;2.30;;
65045;SDS011;54657;52.022;5.534;2023-06-14T06:07:02;3.92;;;2.67;;
65045;SDS011;54657;52.022;5.534;2023-06-14T06:09:28;4.85;;;2.47;;
65045;SDS011;54657;52.022;5.534;2023-06-14T06:11:54;3.33;;;2.38;;
65045;SDS011;54657;52.022;5.534;2023-06-14T06:14:20;5.07;;;2.42;;
65045;SDS011;54657;52.022;5.534;2023-06-14T06:16:46;5.68;;;2.78;;
65045;SDS011;54657;52.022;5.534;2023-06-14T06:19:11;3.53;;;2.60;;
65045;SDS011;54657;52.022;5.534;2023-06-14T06:21:37;10.05;;;2.58;;
65045;SDS011;54657;52.022;5.534;2023-06-14T06:24:04;4.25;;;2.60;;
65045;SDS011;54657;52.022;5.534;2023-06-14T06:26:30;5.57;;;2.58;;
65045;SDS011;54657;52.022;5.534;2023-06-14T06:28:57;4.75;;;2.60;;
65045;SDS011;54657;52.022;5.534;2023-06-14T06:31:23;3.97;;;2.28;;
65045;SDS011;54657;52.022;5.534;2023-06-14T06:33:49;6.15;;;2.35;;
65045;SDS011;54657;52.022;5.534;2023-06-14T06:36:15;2.65;;;2.40;;
65045;SDS011;54657;52.022;5.534;2023-06-14T06:38:41;4.10;;;2.50;;
65045;SDS011;54657;52.022;5.534;2023-06-14T06:41:07;2.83;;;2.20;;
65045;SDS011;54657;52.022;5.534;2023-06-14T06:43:32;4.70;;;2.35;;
65045;SDS011;54657;52.022;5.534;2023-06-14T06:45:58;3.70;;;2.70;;
65045;SDS011;54657;52.022;5.534;2023-06-14T06:48:23;6.78;;;2.35;;
65045;SDS011;54657;52.022;5.534;2023-06-14T06:50:49;4.10;;;2.72;;
65045;SDS011;54657;52.022;5.534;2023-06-14T06:53:16;6.90;;;2.60;;
65045;SDS011;54657;52.022;5.534;2023-06-14T06:55:43;6.43;;;2.50;;
65045;SDS011;54657;52.022;5.534;2023-06-14T06:58:09;5.95;;;2.63;;
65045;SDS011;54657;52.022;5.534;2023-06-14T07:00:35;3.65;;;2.60;;
65045;SDS011;54657;52.022;5.534;2023-06-14T07:03:00;3.75;;;2.50;;
65045;SDS011;54657;52.022;5.534;2023-06-14T07:05:26;4.85;;;2.40;;
65045;SDS011;54657;52.022;5.534;2023-06-14T07:07:52;6.60;;;2.50;;
65045;SDS011;54657;52.022;5.534;2023-06-14T07:10:17;3.97;;;2.70;;
65045;SDS011;54657;52.022;5.534;2023-06-14T07:12:43;6.88;;;2.50;;
65045;SDS011;54657;52.022;5.534;2023-06-14T07:15:09;2.78;;;2.30;;
65045;SDS011;54657;52.022;5.534;2023-06-14T07:17:35;4.57;;;2.22;;
65045;SDS011;54657;52.022;5.534;2023-06-14T07:20:02;2.88;;;2.55;;
65045;SDS011;54657;52.022;5.534;2023-06-14T07:22:37;7.35;;;2.20;;
65045;SDS011;54657;52.022;5.534;2023-06-14T07:25:04;2.85;;;2.10;;
65045;SDS011;54657;52.022;5.534;2023-06-14T07:27:30;2.88;;;2.20;;
65045;SDS011;54657;52.022;5.534;2023-06-14T07:29:55;4.18;;;2.38;;
65045;SDS011;54657;52.022;5.534;2023-06-14T07:32:21;3.10;;;2.20;;
65045;SDS011;54657;52.022;5.534;2023-06-14T07:34:46;4.35;;;2.22;;
65045;SDS011;54657;52.022;5.534;2023-06-14T07:37:12;4.28;;;2.10;;
65045;SDS011;54657;52.022;5.534;2023-06-14T07:39:37;4.72;;;2.22;;
65045;SDS011;54657;52.022;5.534;2023-06-14T07:42:03;5.53;;;2.33;;
65045;SDS011;54657;52.022;5.534;2023-06-14T07:44:29;2.45;;;1.85;;
65045;SDS011;54657;52.022;5.534;2023-06-14T07:46:57;2.08;;;1.90;;
65045;SDS011;54657;52.022;5.534;2023-06-14T07:49:26;2.42;;;2.13;;
65045;SDS011;54657;52.022;5.534;2023-06-14T07:51:52;2.20;;;1.65;;
65045;SDS011;54657;52.022;5.534;2023-06-14T07:54:18;2.45;;;2.08;;
65045;SDS011;54657;52.022;5.534;2023-06-14T07:56:44;2.65;;;2.10;;
65045;SDS011;54657;52.022;5.534;2023-06-14T07:59:10;3.67;;;1.65;;
65045;SDS011;54657;52.022;5.534;2023-06-14T08:01:35;4.07;;;1.80;;
65045;SDS011;54657;52.022;5.534;2023-06-14T08:04:01;2.25;;;2.00;;
65045;SDS011;54657;52.022;5.534;2023-06-14T08:06:26;2.75;;;1.55;;
65045;SDS011;54657;52.022;5.534;2023-06-14T08:08:52;2.25;;;1.60;;
65045;SDS011;54657;52.022;5.534;2023-06-14T08:11:17;2.95;;;1.75;;
65045;SDS011;54657;52.022;5.534;2023-06-14T08:13:43;3.60;;;1.80;;
65045;SDS011;54657;52.022;5.534;2023-06-14T08:16:09;4.22;;;1.67;;
65045;SDS011;54657;52.022;5.534;2023-06-14T08:18:35;1.60;;;1.50;;
65045;SDS011;54657;52.022;5.534;2023-06-14T08:21:01;3.78;;;1.60;;
65045;SDS011;54657;52.022;5.534;2023-06-14T08:23:27;1.95;;;1.50;;
65045;SDS011;54657;52.022;5.534;2023-06-14T08:25:53;3.05;;;1.67;;
65045;SDS011;54657;52.022;5.534;2023-06-14T08:28:19;1.92;;;1.77;;
65045;SDS011;54657;52.022;5.534;2023-06-14T08:30:45;2.25;;;1.80;;
65045;SDS011;54657;52.022;5.534;2023-06-14T08:33:10;2.38;;;1.60;;
65045;SDS011;54657;52.022;5.534;2023-06-14T08:35:36;1.58;;;1.45;;
65045;SDS011;54657;52.022;5.534;2023-06-14T08:38:03;4.90;;;1.58;;
65045;SDS011;54657;52.022;5.534;2023-06-14T08:40:29;1.98;;;1.50;;
65045;SDS011;54657;52.022;5.534;2023-06-14T08:42:55;2.80;;;1.70;;
65045;SDS011;54657;52.022;5.534;2023-06-14T08:45:23;4.65;;;1.67;;
65045;SDS011;54657;52.022;5.534;2023-06-14T08:47:50;4.45;;;1.35;;
65045;SDS011;54657;52.022;5.534;2023-06-14T08:50:20;2.05;;;1.50;;
65045;SDS011;54657;52.022;5.534;2023-06-14T08:52:48;1.90;;;1.45;;
65045;SDS011;54657;52.022;5.534;2023-06-14T08:55:18;2.20;;;1.40;;
65045;SDS011;54657;52.022;5.534;2023-06-14T08:57:45;2.03;;;1.65;;
65045;SDS011;54657;52.022;5.534;2023-06-14T09:00:13;2.70;;;1.23;;
65045;SDS011;54657;52.022;5.534;2023-06-14T09:02:39;2.20;;;1.40;;
65045;SDS011;54657;52.022;5.534;2023-06-14T09:05:11;1.88;;;1.50;;
65045;SDS011;54657;52.022;5.534;2023-06-14T09:07:38;1.80;;;1.48;;
65045;SDS011;54657;52.022;5.534;2023-06-14T09:10:06;2.42;;;1.70;;
65045;SDS011;54657;52.022;5.534;2023-06-14T09:12:33;2.05;;;1.45;;
65045;SDS011;54657;52.022;5.534;2023-06-14T09:14:59;2.28;;;1.65;;
65045;SDS011;54657;52.022;5.534;2023-06-14T09:17:24;3.58;;;1.60;;
65045;SDS011;54657;52.022;5.534;2023-06-14T09:19:51;3.88;;;1.90;;
65045;SDS011;54657;52.022;5.534;2023-06-14T09:22:16;2.25;;;1.50;;
65045;SDS011;54657;52.022;5.534;2023-06-14T09:24:45;4.47;;;1.80;;
65045;SDS011;54657;52.022;5.534;2023-06-14T09:27:14;1.75;;;1.58;;
65045;SDS011;54657;52.022;5.534;2023-06-14T09:29:43;3.47;;;1.70;;
65045;SDS011;54657;52.022;5.534;2023-06-14T09:32:08;2.17;;;1.50;;
65045;SDS011;54657;52.022;5.534;2023-06-14T09:34:35;1.67;;;1.40;;
65045;SDS011;54657;52.022;5.534;2023-06-14T09:37:02;2.92;;;1.42;;
65045;SDS011;54657;52.022;5.534;2023-06-14T09:39:27;2.60;;;1.52;;
65045;SDS011;54657;52.022;5.534;2023-06-14T09:41:53;1.50;;;1.40;;
65045;SDS011;54657;52.022;5.534;2023-06-14T09:44:18;3.08;;;1.35;;
65045;SDS011;54657;52.022;5.534;2023-06-14T09:46:48;2.58;;;1.55;;
65045;SDS011;54657;52.022;5.534;2023-06-14T09:49:17;3.08;;;1.38;;
65045;SDS011;54657;52.022;5.534;2023-06-14T09:51:43;2.22;;;1.40;;
65045;SDS011;54657;52.022;5.534;2023-06-14T09:54:12;3.40;;;1.65;;
65045;SDS011;54657;52.022;5.534;2023-06-14T09:56:41;2.95;;;1.80;;
65045;SDS011;54657;52.022;5.534;2023-06-14T09:59:09;2.20;;;1.50;;
65045;SDS011;54657;52.022;5.534;2023-06-14T10:01:40;4.28;;;1.50;;
65045;SDS011;54657;52.022;5.534;2023-06-14T10:04:07;3.67;;;1.45;;
65045;SDS011;54657;52.022;5.534;2023-06-14T10:06:36;1.83;;;1.67;;
65045;SDS011;54657;52.022;5.534;2023-06-14T10:09:04;2.00;;;1.52;;
65045;SDS011;54657;52.022;5.534;2023-06-14T10:11:32;4.13;;;1.98;;
65045;SDS011;54657;52.022;5.534;2023-06-14T10:14:00;2.95;;;1.60;;
65045;SDS011;54657;52.022;5.534;2023-06-14T10:16:28;4.70;;;1.70;;
65045;SDS011;54657;52.022;5.534;2023-06-14T10:20:02;4.15;;;1.70;;
65045;SDS011;54657;52.022;5.534;2023-06-14T10:22:19;5.78;;;1.80;;
65045;SDS011;54657;52.022;5.534;2023-06-14T10:24:51;1.77;;;1.67;;
65045;SDS011;54657;52.022;5.534;2023-06-14T10:27:16;2.25;;;1.30;;
65045;SDS011;54657;52.022;5.534;2023-06-14T10:32:18;1.73;;;1.58;;
65045;SDS011;54657;52.022;5.534;2023-06-14T10:34:44;3.05;;;1.70;;
65045;SDS011;54657;52.022;5.534;2023-06-14T10:37:13;3.92;;;1.40;;
65045;SDS011;54657;52.022;5.534;2023-06-14T10:39:43;1.90;;;1.52;;
65045;SDS011;54657;52.022;5.534;2023-06-14T10:42:10;2.93;;;1.43;;
65045;SDS011;54657;52.022;5.534;2023-06-14T10:44:49;2.35;;;1.40;;
65045;SDS011;54657;52.022;5.534;2023-06-14T10:47:30;1.98;;;1.60;;
65045;SDS011;54657;52.022;5.534;2023-06-14T10:50:04;2.63;;;1.50;;
65045;SDS011;54657;52.022;5.534;2023-06-14T10:52:35;2.88;;;1.42;;
65045;SDS011;54657;52.022;5.534;2023-06-14T10:55:05;2.05;;;1.42;;
65045;SDS011;54657;52.022;5.534;2023-06-14T10:57:52;3.13;;;1.65;;
65045;SDS011;54657;52.022;5.534;2023-06-14T11:00:24;3.35;;;1.50;;
65045;SDS011;54657;52.022;5.534;2023-06-14T11:05:48;3.38;;;1.33;;
65045;SDS011;54657;52.022;5.534;2023-06-14T11:11:05;4.20;;;1.40;;
65045;SDS011;54657;52.022;5.534;2023-06-14T11:13:32;1.50;;;1.40;;
65045;SDS011;54657;52.022;5.534;2023-06-14T11:15:57;4.10;;;1.50;;
65045;SDS011;54657;52.022;5.534;2023-06-14T11:18:24;1.92;;;1.40;;
65045;SDS011;54657;52.022;5.534;2023-06-14T11:20:52;1.88;;;1.67;;
65045;SDS011;54657;52.022;5.534;2023-06-14T11:23:18;2.78;;;1.52;;
65045;SDS011;54657;52.022;5.534;2023-06-14T11:25:43;2.60;;;1.55;;
65045;SDS011;54657;52.022;5.534;2023-06-14T11:28:14;3.42;;;1.70;;
65045;SDS011;54657;52.022;5.534;2023-06-14T11:30:39;1.65;;;1.55;;
65045;SDS011;54657;52.022;5.534;2023-06-14T11:33:09;3.60;;;2.10;;
65045;SDS011;54657;52.022;5.534;2023-06-14T11:35:36;3.38;;;1.48;;
65045;SDS011;54657;52.022;5.534;2023-06-14T11:38:02;2.00;;;1.63;;
65045;SDS011;54657;52.022;5.534;2023-06-14T11:40:27;6.90;;;1.73;;
65045;SDS011;54657;52.022;5.534;2023-06-14T11:43:00;2.47;;;1.55;;
65045;SDS011;54657;52.022;5.534;2023-06-14T11:45:27;1.83;;;1.40;;
65045;SDS011;54657;52.022;5.534;2023-06-14T11:47:54;3.05;;;1.60;;
65045;SDS011;54657;52.022;5.534;2023-06-14T11:50:23;3.25;;;1.55;;
65045;SDS011;54657;52.022;5.534;2023-06-14T11:52:56;3.05;;;1.80;;
65045;SDS011;54657;52.022;5.534;2023-06-14T11:55:24;2.75;;;1.65;;
65045;SDS011;54657;52.022;5.534;2023-06-14T11:57:50;1.48;;;1.33;;
65045;SDS011;54657;52.022;5.534;2023-06-14T12:00:16;5.30;;;1.70;;
65045;SDS011;54657;52.022;5.534;2023-06-14T12:02:42;4.03;;;1.55;;
65045;SDS011;54657;52.022;5.534;2023-06-14T12:05:20;4.90;;;1.60;;
65045;SDS011;54657;52.022;5.534;2023-06-14T12:07:46;1.45;;;1.30;;
65045;SDS011;54657;52.022;5.534;2023-06-14T12:10:12;9.38;;;1.60;;
65045;SDS011;54657;52.022;5.534;2023-06-14T12:12:39;1.60;;;1.33;;
65045;SDS011;54657;52.022;5.534;2023-06-14T12:15:07;1.30;;;1.20;;
65045;SDS011;54657;52.022;5.534;2023-06-14T12:17:37;3.70;;;1.40;;
65045;SDS011;54657;52.022;5.534;2023-06-14T12:20:10;2.17;;;1.52;;
65045;SDS011;54657;52.022;5.534;2023-06-14T12:22:52;2.40;;;1.42;;
65045;SDS011;54657;52.022;5.534;2023-06-14T12:25:32;4.53;;;1.45;;
65045;SDS011;54657;52.022;5.534;2023-06-14T12:27:59;6.53;;;3.95;;
65045;SDS011;54657;52.022;5.534;2023-06-14T12:30:30;4.07;;;2.00;;
65045;SDS011;54657;52.022;5.534;2023-06-14T12:32:55;2.85;;;1.55;;
65045;SDS011;54657;52.022;5.534;2023-06-14T12:35:30;3.88;;;1.95;;
65045;SDS011;54657;52.022;5.534;2023-06-14T12:37:56;4.60;;;1.77;;
65045;SDS011;54657;52.022;5.534;2023-06-14T12:47:10;1.48;;;1.30;;
65045;SDS011;54657;52.022;5.534;2023-06-14T12:52:14;3.58;;;1.45;;
65045;SDS011;54657;52.022;5.534;2023-06-14T12:54:46;3.00;;;1.38;;
65045;SDS011;54657;52.022;5.534;2023-06-14T12:57:12;1.95;;;1.70;;
65045;SDS011;54657;52.022;5.534;2023-06-14T13:00:01;3.22;;;1.40;;
65045;SDS011;54657;52.022;5.534;2023-06-14T13:02:45;2.38;;;1.40;;
65045;SDS011;54657;52.022;5.534;2023-06-14T13:08:06;3.10;;;1.80;;
65045;SDS011;54657;52.022;5.534;2023-06-14T13:10:33;3.65;;;2.30;;
65045;SDS011;54657;52.022;5.534;2023-06-14T13:12:59;1.73;;;1.60;;
65045;SDS011;54657;52.022;5.534;2023-06-14T13:15:25;2.28;;;1.42;;
65045;SDS011;54657;52.022;5.534;2023-06-14T13:17:51;3.08;;;1.45;;
65045;SDS011;54657;52.022;5.534;2023-06-14T13:20:17;3.15;;;1.75;;
65045;SDS011;54657;52.022;5.534;2023-06-14T13:22:45;2.78;;;1.10;;
65045;SDS011;54657;52.022;5.534;2023-06-14T13:25:25;6.88;;;1.33;;
65045;SDS011;54657;52.022;5.534;2023-06-14T13:28:16;3.15;;;1.25;;
65045;SDS011;54657;52.022;5.534;2023-06-14T13:30:42;1.30;;;1.13;;
65045;SDS011;54657;52.022;5.534;2023-06-14T13:33:16;2.33;;;1.30;;
65045;SDS011;54657;52.022;5.534;2023-06-14T13:45:32;1.33;;;1.23;;
65045;SDS011;54657;52.022;5.534;2023-06-14T13:54:35;3.17;;;1.25;;
65045;SDS011;54657;52.022;5.534;2023-06-14T13:57:13;1.30;;;1.02;;
65045;SDS011;54657;52.022;5.534;2023-06-14T14:07:22;1.80;;;1.20;;
65045;SDS011;54657;52.022;5.534;2023-06-14T14:10:39;2.58;;;1.27;;
65045;SDS011;54657;52.022;5.534;2023-06-14T14:20:18;1.15;;;1.00;;
65045;SDS011;54657;52.022;5.534;2023-06-14T14:22:47;3.47;;;1.15;;
65045;SDS011;54657;52.022;5.534;2023-06-14T14:36:06;1.50;;;1.10;;
65045;SDS011;54657;52.022;5.534;2023-06-14T14:39:09;1.42;;;1.25;;
65045;SDS011;54657;52.022;5.534;2023-06-14T14:42:03;6.18;;;1.10;;
65045;SDS011;54657;52.022;5.534;2023-06-14T14:50:47;2.95;;;1.15;;
65045;SDS011;54657;52.022;5.534;2023-06-14T14:57:03;1.10;;;1.10;;
65045;SDS011;54657;52.022;5.534;2023-06-14T15:03:23;3.15;;;1.30;;
65045;SDS011;54657;52.022;5.534;2023-06-14T15:05:48;1.55;;;1.10;;
65045;SDS011;54657;52.022;5.534;2023-06-14T15:08:14;4.85;;;1.40;;
65045;SDS011;54657;52.022;5.534;2023-06-14T15:10:40;2.08;;;1.23;;
65045;SDS011;54657;52.022;5.534;2023-06-14T15:13:09;1.40;;;1.30;;
65045;SDS011;54657;52.022;5.534;2023-06-14T15:15:35;4.05;;;1.40;;
65045;SDS011;54657;52.022;5.534;2023-06-14T15:18:01;1.48;;;1.27;;
65045;SDS011;54657;52.022;5.534;2023-06-14T15:20:27;1.88;;;1.33;;
65045;SDS011;54657;52.022;5.534;2023-06-14T15:23:00;2.65;;;1.30;;
65045;SDS011;54657;52.022;5.534;2023-06-14T15:25:28;2.63;;;1.30;;
65045;SDS011;54657;52.022;5.534;2023-06-14T15:27:55;1.30;;;1.08;;
65045;SDS011;54657;52.022;5.534;2023-06-14T15:30:21;2.65;;;1.20;;
65045;SDS011;54657;52.022;5.534;2023-06-14T15:32:47;2.15;;;1.17;;
65045;SDS011;54657;52.022;5.534;2023-06-14T15:35:13;2.50;;;1.13;;
65045;SDS011;54657;52.022;5.534;2023-06-14T15:37:38;1.80;;;1.02;;
65045;SDS011;54657;52.022;5.534;2023-06-14T15:40:04;1.65;;;1.10;;
65045;SDS011;54657;52.022;5.534;2023-06-14T15:42:30;2.08;;;1.00;;
65045;SDS011;54657;52.022;5.534;2023-06-14T15:44:56;3.33;;;1.23;;
65045;SDS011;54657;52.022;5.534;2023-06-14T15:47:22;2.70;;;1.30;;
65045;SDS011;54657;52.022;5.534;2023-06-14T15:49:48;3.20;;;1.27;;
65045;SDS011;54657;52.022;5.534;2023-06-14T15:52:13;2.58;;;1.33;;
65045;SDS011;54657;52.022;5.534;2023-06-14T15:54:39;2.05;;;1.50;;
65045;SDS011;54657;52.022;5.534;2023-06-14T15:57:04;2.53;;;1.25;;
65045;SDS011;54657;52.022;5.534;2023-06-14T15:59:30;2.08;;;1.48;;
65045;SDS011;54657;52.022;5.534;2023-06-14T16:01:55;2.13;;;0.80;;
65045;SDS011;54657;52.022;5.534;2023-06-14T16:04:21;2.97;;;1.67;;
65045;SDS011;54657;52.022;5.534;2023-06-14T16:06:46;1.30;;;1.20;;
65045;SDS011;54657;52.022;5.534;2023-06-14T16:09:12;2.63;;;1.40;;
65045;SDS011;54657;52.022;5.534;2023-06-14T16:11:38;3.50;;;1.27;;